sensor_id;sensor_type;location;lat;lon;timestamp;P1;durP1;ratioP1;P2;durP2;ratioP2
22094;SDS011;24083;55.670;37.568;2024-03-25T00:01:20;0.63;;;0.47;;
22094;SDS011;24083;55.670;37.568;2024-03-25T00:03:50;0.40;;;0.40;;
22094;SDS011;24083;55.670;37.568;2024-03-25T00:08:48;0.20;;;0.20;;
22094;SDS011;24083;55.670;37.568;2024-03-25T00:11:15;0.30;;;0.30;;
22094;SDS011;24083;55.670;37.568;2024-03-25T00:13:41;0.52;;;0.32;;
22094;SDS011;24083;55.670;37.568;2024-03-25T00:16:07;0.22;;;0.20;;
22094;SDS011;24083;55.670;37.568;2024-03-25T00:18:34;0.10;;;0.10;;
22094;SDS011;24083;55.670;37.568;2024-03-25T00:21:01;0.43;;;0.35;;
22094;SDS011;24083;55.670;37.568;2024-03-25T00:23:27;0.57;;;0.35;;
22094;SDS011;24083;55.670;37.568;2024-03-25T00:25:54;0.32;;;0.32;;
22094;SDS011;24083;55.670;37.568;2024-03-25T00:28:20;0.35;;;0.15;;
22094;SDS011;24083;55.670;37.568;2024-03-25T00:30:48;0.30;;;0.30;;
22094;SDS011;24083;55.670;37.568;2024-03-25T00:33:15;0.20;;;0.20;;
22094;SDS011;24083;55.670;37.568;2024-03-25T00:35:43;0.10;;;0.10;;
22094;SDS011;24083;55.670;37.568;2024-03-25T00:38:13;0.17;;;0.10;;
22094;SDS011;24083;55.670;37.568;2024-03-25T00:40:39;1.65;;;0.28;;
22094;SDS011;24083;55.670;37.568;2024-03-25T00:45:38;0.00;;;0.00;;
22094;SDS011;24083;55.670;37.568;2024-03-25T00:48:14;0.22;;;0.22;;
22094;SDS011;24083;55.670;37.568;2024-03-25T00:50:39;0.50;;;0.13;;
22094;SDS011;24083;55.670;37.568;2024-03-25T00:53:06;0.10;;;0.10;;
22094;SDS011;24083;55.670;37.568;2024-03-25T00:55:34;0.08;;;0.08;;
22094;SDS011;24083;55.670;37.568;2024-03-25T00:58:02;0.20;;;0.17;;
22094;SDS011;24083;55.670;37.568;2024-03-25T01:00:29;0.38;;;0.22;;
22094;SDS011;24083;55.670;37.568;2024-03-25T01:03:03;1.55;;;0.47;;
22094;SDS011;24083;55.670;37.568;2024-03-25T01:08:20;0.20;;;0.20;;
22094;SDS011;24083;55.670;37.568;2024-03-25T01:10:48;0.20;;;0.20;;
22094;SDS011;24083;55.670;37.568;2024-03-25T01:13:13;0.20;;;0.10;;
22094;SDS011;24083;55.670;37.568;2024-03-25T01:15:40;0.20;;;0.20;;
22094;SDS011;24083;55.670;37.568;2024-03-25T01:18:07;1.03;;;0.20;;
22094;SDS011;24083;55.670;37.568;2024-03-25T01:20:33;0.20;;;0.20;;
22094;SDS011;24083;55.670;37.568;2024-03-25T01:25:31;0.57;;;0.40;;
22094;SDS011;24083;55.670;37.568;2024-03-25T01:30:25;0.32;;;0.30;;
22094;SDS011;24083;55.670;37.568;2024-03-25T01:32:55;0.20;;;0.20;;
22094;SDS011;24083;55.670;37.568;2024-03-25T01:35:22;0.20;;;0.20;;
22094;SDS011;24083;55.670;37.568;2024-03-25T01:37:48;0.32;;;0.32;;
22094;SDS011;24083;55.670;37.568;2024-03-25T01:40:15;0.20;;;0.20;;
22094;SDS011;24083;55.670;37.568;2024-03-25T01:42:42;0.43;;;0.20;;
22094;SDS011;24083;55.670;37.568;2024-03-25T01:45:10;0.22;;;0.22;;
22094;SDS011;24083;55.670;37.568;2024-03-25T01:47:42;0.57;;;0.22;;
22094;SDS011;24083;55.670;37.568;2024-03-25T01:50:09;0.10;;;0.10;;
22094;SDS011;24083;55.670;37.568;2024-03-25T01:52:36;0.20;;;0.15;;
22094;SDS011;24083;55.670;37.568;2024-03-25T01:55:01;0.20;;;0.20;;
22094;SDS011;24083;55.670;37.568;2024-03-25T01:57:29;0.25;;;0.25;;
22094;SDS011;24083;55.670;37.568;2024-03-25T01:59:55;0.35;;;0.30;;
22094;SDS011;24083;55.670;37.568;2024-03-25T02:02:22;0.20;;;0.20;;
22094;SDS011;24083;55.670;37.568;2024-03-25T02:04:49;0.20;;;0.20;;
22094;SDS011;24083;55.670;37.568;2024-03-25T02:07:17;0.60;;;0.28;;
22094;SDS011;24083;55.670;37.568;2024-03-25T02:09:43;3.22;;;0.30;;
22094;SDS011;24083;55.670;37.568;2024-03-25T02:12:10;0.77;;;0.25;;
22094;SDS011;24083;55.670;37.568;2024-03-25T02:14:46;0.28;;;0.28;;
22094;SDS011;24083;55.670;37.568;2024-03-25T02:17:12;0.32;;;0.28;;
22094;SDS011;24083;55.670;37.568;2024-03-25T02:19:39;0.60;;;0.30;;
22094;SDS011;24083;55.670;37.568;2024-03-25T02:22:05;1.35;;;0.30;;
22094;SDS011;24083;55.670;37.568;2024-03-25T02:24:31;0.20;;;0.20;;
22094;SDS011;24083;55.670;37.568;2024-03-25T02:27:02;0.30;;;0.30;;
22094;SDS011;24083;55.670;37.568;2024-03-25T02:29:35;0.22;;;0.22;;
22094;SDS011;24083;55.670;37.568;2024-03-25T02:32:03;0.20;;;0.20;;
22094;SDS011;24083;55.670;37.568;2024-03-25T02:37:06;0.55;;;0.40;;
22094;SDS011;24083;55.670;37.568;2024-03-25T02:39:44;0.17;;;0.17;;
22094;SDS011;24083;55.670;37.568;2024-03-25T02:44:36;0.95;;;0.20;;
22094;SDS011;24083;55.670;37.568;2024-03-25T02:47:04;0.40;;;0.40;;
22094;SDS011;24083;55.670;37.568;2024-03-25T02:49:32;0.40;;;0.40;;
22094;SDS011;24083;55.670;37.568;2024-03-25T02:52:00;0.20;;;0.20;;
22094;SDS011;24083;55.670;37.568;2024-03-25T02:54:33;0.30;;;0.30;;
22094;SDS011;24083;55.670;37.568;2024-03-25T02:57:00;0.63;;;0.47;;
22094;SDS011;24083;55.670;37.568;2024-03-25T02:59:27;0.30;;;0.20;;
22094;SDS011;24083;55.670;37.568;2024-03-25T03:01:54;0.35;;;0.20;;
22094;SDS011;24083;55.670;37.568;2024-03-25T03:04:21;0.45;;;0.20;;
22094;SDS011;24083;55.670;37.568;2024-03-25T03:06:48;0.52;;;0.30;;
22094;SDS011;24083;55.670;37.568;2024-03-25T03:09:13;0.30;;;0.30;;
22094;SDS011;24083;55.670;37.568;2024-03-25T03:11:40;0.68;;;0.38;;
22094;SDS011;24083;55.670;37.568;2024-03-25T03:14:12;0.20;;;0.20;;
22094;SDS011;24083;55.670;37.568;2024-03-25T03:16:39;1.08;;;0.30;;
22094;SDS011;24083;55.670;37.568;2024-03-25T03:19:06;0.22;;;0.22;;
22094;SDS011;24083;55.670;37.568;2024-03-25T03:21:33;0.30;;;0.30;;
22094;SDS011;24083;55.670;37.568;2024-03-25T03:24:00;0.88;;;0.40;;
22094;SDS011;24083;55.670;37.568;2024-03-25T03:29:19;0.45;;;0.38;;
22094;SDS011;24083;55.670;37.568;2024-03-25T03:31:47;0.47;;;0.40;;
22094;SDS011;24083;55.670;37.568;2024-03-25T03:34:18;0.10;;;0.10;;
22094;SDS011;24083;55.670;37.568;2024-03-25T03:36:45;0.30;;;0.20;;
22094;SDS011;24083;55.670;37.568;2024-03-25T03:39:12;1.50;;;0.35;;
22094;SDS011;24083;55.670;37.568;2024-03-25T03:41:41;0.10;;;0.10;;
22094;SDS011;24083;55.670;37.568;2024-03-25T03:44:13;0.40;;;0.40;;
22094;SDS011;24083;55.670;37.568;2024-03-25T03:46:41;0.60;;;0.45;;
22094;SDS011;24083;55.670;37.568;2024-03-25T03:49:11;0.40;;;0.40;;
22094;SDS011;24083;55.670;37.568;2024-03-25T03:51:37;0.50;;;0.40;;
22094;SDS011;24083;55.670;37.568;2024-03-25T03:54:03;1.27;;;0.50;;
22094;SDS011;24083;55.670;37.568;2024-03-25T03:56:30;1.42;;;0.40;;
22094;SDS011;24083;55.670;37.568;2024-03-25T03:58:56;0.73;;;0.52;;
22094;SDS011;24083;55.670;37.568;2024-03-25T04:01:22;0.28;;;0.28;;
22094;SDS011;24083;55.670;37.568;2024-03-25T04:03:47;0.60;;;0.38;;
22094;SDS011;24083;55.670;37.568;2024-03-25T04:06:13;0.45;;;0.43;;
22094;SDS011;24083;55.670;37.568;2024-03-25T04:08:39;0.85;;;0.40;;
22094;SDS011;24083;55.670;37.568;2024-03-25T04:11:08;0.50;;;0.50;;
22094;SDS011;24083;55.670;37.568;2024-03-25T04:13:42;1.05;;;0.57;;
22094;SDS011;24083;55.670;37.568;2024-03-25T04:16:08;0.30;;;0.30;;
22094;SDS011;24083;55.670;37.568;2024-03-25T04:18:38;1.00;;;0.30;;
22094;SDS011;24083;55.670;37.568;2024-03-25T04:21:10;0.70;;;0.60;;
22094;SDS011;24083;55.670;37.568;2024-03-25T04:23:38;0.80;;;0.55;;
22094;SDS011;24083;55.670;37.568;2024-03-25T04:26:08;0.82;;;0.60;;
22094;SDS011;24083;55.670;37.568;2024-03-25T04:28:43;0.40;;;0.40;;
22094;SDS011;24083;55.670;37.568;2024-03-25T04:31:09;0.77;;;0.60;;
22094;SDS011;24083;55.670;37.568;2024-03-25T04:33:35;2.88;;;0.60;;
22094;SDS011;24083;55.670;37.568;2024-03-25T04:36:01;2.60;;;0.70;;
22094;SDS011;24083;55.670;37.568;2024-03-25T04:38:27;1.10;;;0.55;;
22094;SDS011;24083;55.670;37.568;2024-03-25T04:40:52;3.05;;;0.68;;
22094;SDS011;24083;55.670;37.568;2024-03-25T04:43:19;1.10;;;0.73;;
22094;SDS011;24083;55.670;37.568;2024-03-25T04:45:47;2.13;;;0.75;;
22094;SDS011;24083;55.670;37.568;2024-03-25T04:48:24;1.83;;;0.60;;
22094;SDS011;24083;55.670;37.568;2024-03-25T04:50:50;1.15;;;0.70;;
22094;SDS011;24083;55.670;37.568;2024-03-25T04:53:16;1.92;;;0.57;;
22094;SDS011;24083;55.670;37.568;2024-03-25T04:55:42;0.95;;;0.65;;
22094;SDS011;24083;55.670;37.568;2024-03-25T04:58:09;1.52;;;0.80;;
22094;SDS011;24083;55.670;37.568;2024-03-25T05:00:36;1.20;;;0.98;;
22094;SDS011;24083;55.670;37.568;2024-03-25T05:03:03;1.35;;;0.80;;
22094;SDS011;24083;55.670;37.568;2024-03-25T05:05:29;3.38;;;0.90;;
22094;SDS011;24083;55.670;37.568;2024-03-25T05:07:56;2.15;;;0.90;;
22094;SDS011;24083;55.670;37.568;2024-03-25T05:10:26;1.20;;;0.80;;
22094;SDS011;24083;55.670;37.568;2024-03-25T05:15:28;2.08;;;0.70;;
22094;SDS011;24083;55.670;37.568;2024-03-25T05:17:54;1.83;;;0.90;;
22094;SDS011;24083;55.670;37.568;2024-03-25T05:20:21;1.67;;;0.90;;
22094;SDS011;24083;55.670;37.568;2024-03-25T05:22:48;0.47;;;0.47;;
22094;SDS011;24083;55.670;37.568;2024-03-25T05:28:02;1.50;;;0.90;;
22094;SDS011;24083;55.670;37.568;2024-03-25T05:30:28;2.67;;;0.90;;
22094;SDS011;24083;55.670;37.568;2024-03-25T05:33:07;1.85;;;0.95;;
22094;SDS011;24083;55.670;37.568;2024-03-25T05:35:32;2.13;;;0.85;;
22094;SDS011;24083;55.670;37.568;2024-03-25T05:40:34;1.75;;;1.00;;
22094;SDS011;24083;55.670;37.568;2024-03-25T05:43:01;1.35;;;0.95;;
22094;SDS011;24083;55.670;37.568;2024-03-25T05:45:28;1.50;;;0.80;;
22094;SDS011;24083;55.670;37.568;2024-03-25T05:47:57;1.50;;;1.00;;
22094;SDS011;24083;55.670;37.568;2024-03-25T05:50:25;1.90;;;0.77;;
22094;SDS011;24083;55.670;37.568;2024-03-25T05:52:53;1.77;;;1.00;;
22094;SDS011;24083;55.670;37.568;2024-03-25T05:55:18;3.70;;;0.80;;
22094;SDS011;24083;55.670;37.568;2024-03-25T05:57:46;0.85;;;0.70;;
22094;SDS011;24083;55.670;37.568;2024-03-25T06:00:15;1.20;;;0.85;;
22094;SDS011;24083;55.670;37.568;2024-03-25T06:02:41;0.80;;;0.60;;
22094;SDS011;24083;55.670;37.568;2024-03-25T06:07:39;1.40;;;0.73;;
22094;SDS011;24083;55.670;37.568;2024-03-25T06:15:35;1.48;;;0.90;;
22094;SDS011;24083;55.670;37.568;2024-03-25T06:18:01;2.40;;;1.15;;
22094;SDS011;24083;55.670;37.568;2024-03-25T06:20:27;2.40;;;1.10;;
22094;SDS011;24083;55.670;37.568;2024-03-25T06:22:53;2.42;;;1.13;;
22094;SDS011;24083;55.670;37.568;2024-03-25T06:25:18;1.92;;;1.20;;
22094;SDS011;24083;55.670;37.568;2024-03-25T06:28:03;1.27;;;1.00;;
22094;SDS011;24083;55.670;37.568;2024-03-25T06:30:29;1.92;;;0.80;;
22094;SDS011;24083;55.670;37.568;2024-03-25T06:33:14;4.32;;;1.60;;
22094;SDS011;24083;55.670;37.568;2024-03-25T06:36:00;4.18;;;1.08;;
22094;SDS011;24083;55.670;37.568;2024-03-25T06:38:26;2.25;;;1.30;;
22094;SDS011;24083;55.670;37.568;2024-03-25T06:40:52;1.42;;;1.05;;
22094;SDS011;24083;55.670;37.568;2024-03-25T06:43:21;1.95;;;1.02;;
22094;SDS011;24083;55.670;37.568;2024-03-25T06:45:59;2.20;;;0.95;;
22094;SDS011;24083;55.670;37.568;2024-03-25T06:48:27;2.28;;;1.02;;
22094;SDS011;24083;55.670;37.568;2024-03-25T06:51:00;4.72;;;1.20;;
22094;SDS011;24083;55.670;37.568;2024-03-25T06:53:32;6.70;;;1.30;;
22094;SDS011;24083;55.670;37.568;2024-03-25T06:55:59;2.03;;;1.15;;
22094;SDS011;24083;55.670;37.568;2024-03-25T06:58:29;2.50;;;1.60;;
22094;SDS011;24083;55.670;37.568;2024-03-25T07:01:03;3.58;;;1.38;;
22094;SDS011;24083;55.670;37.568;2024-03-25T07:03:33;4.75;;;1.30;;
22094;SDS011;24083;55.670;37.568;2024-03-25T07:09:10;1.80;;;1.02;;
22094;SDS011;24083;55.670;37.568;2024-03-25T07:11:38;1.95;;;0.80;;
22094;SDS011;24083;55.670;37.568;2024-03-25T07:14:08;2.78;;;1.40;;
22094;SDS011;24083;55.670;37.568;2024-03-25T07:16:36;2.17;;;1.10;;
22094;SDS011;24083;55.670;37.568;2024-03-25T07:19:03;1.00;;;0.82;;
22094;SDS011;24083;55.670;37.568;2024-03-25T07:21:29;3.70;;;1.45;;
22094;SDS011;24083;55.670;37.568;2024-03-25T07:24:01;2.63;;;1.00;;
22094;SDS011;24083;55.670;37.568;2024-03-25T07:26:26;3.20;;;1.20;;
22094;SDS011;24083;55.670;37.568;2024-03-25T07:28:53;0.82;;;0.52;;
22094;SDS011;24083;55.670;37.568;2024-03-25T07:31:21;1.77;;;0.98;;
22094;SDS011;24083;55.670;37.568;2024-03-25T07:33:55;5.13;;;1.30;;
22094;SDS011;24083;55.670;37.568;2024-03-25T07:36:21;4.85;;;1.45;;
22094;SDS011;24083;55.670;37.568;2024-03-25T07:38:49;3.95;;;1.48;;
22094;SDS011;24083;55.670;37.568;2024-03-25T07:41:16;2.47;;;1.20;;
22094;SDS011;24083;55.670;37.568;2024-03-25T07:43:48;5.88;;;1.65;;
22094;SDS011;24083;55.670;37.568;2024-03-25T07:46:15;4.32;;;1.42;;
22094;SDS011;24083;55.670;37.568;2024-03-25T07:48:42;2.78;;;1.25;;
22094;SDS011;24083;55.670;37.568;2024-03-25T07:51:08;4.00;;;1.25;;
22094;SDS011;24083;55.670;37.568;2024-03-25T07:53:34;1.55;;;0.80;;
22094;SDS011;24083;55.670;37.568;2024-03-25T07:56:00;2.95;;;1.30;;
22094;SDS011;24083;55.670;37.568;2024-03-25T07:58:27;2.00;;;0.90;;
22094;SDS011;24083;55.670;37.568;2024-03-25T08:01:04;8.38;;;1.30;;
22094;SDS011;24083;55.670;37.568;2024-03-25T08:03:29;4.72;;;1.48;;
22094;SDS011;24083;55.670;37.568;2024-03-25T08:05:55;3.10;;;1.13;;
22094;SDS011;24083;55.670;37.568;2024-03-25T08:08:25;4.60;;;1.55;;
22094;SDS011;24083;55.670;37.568;2024-03-25T08:10:51;2.85;;;1.13;;
22094;SDS011;24083;55.670;37.568;2024-03-25T08:13:22;1.88;;;0.88;;
22094;SDS011;24083;55.670;37.568;2024-03-25T08:15:48;3.60;;;1.23;;
22094;SDS011;24083;55.670;37.568;2024-03-25T08:18:16;3.40;;;1.17;;
22094;SDS011;24083;55.670;37.568;2024-03-25T08:20:48;2.70;;;1.30;;
22094;SDS011;24083;55.670;37.568;2024-03-25T08:23:23;2.63;;;0.88;;
22094;SDS011;24083;55.670;37.568;2024-03-25T08:25:51;4.07;;;1.43;;
22094;SDS011;24083;55.670;37.568;2024-03-25T08:28:17;2.75;;;1.00;;
22094;SDS011;24083;55.670;37.568;2024-03-25T08:30:42;2.53;;;1.02;;
22094;SDS011;24083;55.670;37.568;2024-03-25T08:33:08;2.78;;;1.30;;
22094;SDS011;24083;55.670;37.568;2024-03-25T08:35:37;4.65;;;1.25;;
22094;SDS011;24083;55.670;37.568;2024-03-25T08:38:03;2.65;;;0.98;;
22094;SDS011;24083;55.670;37.568;2024-03-25T08:40:30;3.60;;;1.50;;
22094;SDS011;24083;55.670;37.568;2024-03-25T08:42:57;2.13;;;1.10;;
22094;SDS011;24083;55.670;37.568;2024-03-25T08:45:23;3.47;;;1.38;;
22094;SDS011;24083;55.670;37.568;2024-03-25T08:47:49;5.47;;;1.10;;
22094;SDS011;24083;55.670;37.568;2024-03-25T08:50:15;3.97;;;1.10;;
22094;SDS011;24083;55.670;37.568;2024-03-25T08:52:41;3.10;;;1.25;;
22094;SDS011;24083;55.670;37.568;2024-03-25T08:57:43;4.95;;;1.10;;
22094;SDS011;24083;55.670;37.568;2024-03-25T09:03:00;3.35;;;1.17;;
22094;SDS011;24083;55.670;37.568;2024-03-25T09:05:26;3.05;;;1.10;;
22094;SDS011;24083;55.670;37.568;2024-03-25T09:07:53;2.10;;;1.00;;
22094;SDS011;24083;55.670;37.568;2024-03-25T09:10:19;3.38;;;1.13;;
22094;SDS011;24083;55.670;37.568;2024-03-25T09:13:03;2.50;;;1.30;;
22094;SDS011;24083;55.670;37.568;2024-03-25T09:15:29;3.42;;;0.98;;
22094;SDS011;24083;55.670;37.568;2024-03-25T09:17:55;4.70;;;1.30;;
22094;SDS011;24083;55.670;37.568;2024-03-25T09:20:21;2.22;;;1.10;;
22094;SDS011;24083;55.670;37.568;2024-03-25T09:22:50;4.43;;;1.00;;
22094;SDS011;24083;55.670;37.568;2024-03-25T09:25:17;3.22;;;1.20;;
22094;SDS011;24083;55.670;37.568;2024-03-25T09:27:46;1.67;;;0.77;;
22094;SDS011;24083;55.670;37.568;2024-03-25T09:30:12;3.47;;;1.05;;
22094;SDS011;24083;55.670;37.568;2024-03-25T09:32:42;2.35;;;1.05;;
22094;SDS011;24083;55.670;37.568;2024-03-25T09:35:08;4.32;;;1.30;;
22094;SDS011;24083;55.670;37.568;2024-03-25T09:37:37;3.63;;;1.33;;
22094;SDS011;24083;55.670;37.568;2024-03-25T09:40:03;3.53;;;1.35;;
22094;SDS011;24083;55.670;37.568;2024-03-25T09:44:59;3.03;;;1.20;;
22094;SDS011;24083;55.670;37.568;2024-03-25T09:47:26;2.70;;;1.27;;
22094;SDS011;24083;55.670;37.568;2024-03-25T09:49:54;5.90;;;1.10;;
22094;SDS011;24083;55.670;37.568;2024-03-25T09:52:24;4.70;;;1.40;;
22094;SDS011;24083;55.670;37.568;2024-03-25T09:54:50;6.18;;;1.30;;
22094;SDS011;24083;55.670;37.568;2024-03-25T09:57:22;3.05;;;1.20;;
22094;SDS011;24083;55.670;37.568;2024-03-25T09:59:50;7.05;;;1.30;;
22094;SDS011;24083;55.670;37.568;2024-03-25T10:04:52;3.97;;;1.38;;
22094;SDS011;24083;55.670;37.568;2024-03-25T10:09:54;3.10;;;1.30;;
22094;SDS011;24083;55.670;37.568;2024-03-25T10:12:22;5.28;;;1.40;;
22094;SDS011;24083;55.670;37.568;2024-03-25T10:14:50;5.03;;;1.40;;
22094;SDS011;24083;55.670;37.568;2024-03-25T10:17:16;4.35;;;1.60;;
22094;SDS011;24083;55.670;37.568;2024-03-25T10:19:43;6.45;;;1.40;;
22094;SDS011;24083;55.670;37.568;2024-03-25T10:22:14;7.70;;;1.52;;
22094;SDS011;24083;55.670;37.568;2024-03-25T10:24:44;6.80;;;1.50;;
22094;SDS011;24083;55.670;37.568;2024-03-25T10:27:23;3.33;;;1.40;;
22094;SDS011;24083;55.670;37.568;2024-03-25T10:29:54;4.25;;;1.40;;
22094;SDS011;24083;55.670;37.568;2024-03-25T10:32:23;4.45;;;1.60;;
22094;SDS011;24083;55.670;37.568;2024-03-25T10:34:52;5.38;;;1.70;;
22094;SDS011;24083;55.670;37.568;2024-03-25T10:39:56;3.30;;;1.65;;
22094;SDS011;24083;55.670;37.568;2024-03-25T10:42:32;7.15;;;1.67;;
22094;SDS011;24083;55.670;37.568;2024-03-25T10:44:59;2.65;;;1.50;;
22094;SDS011;24083;55.670;37.568;2024-03-25T10:47:31;5.75;;;1.30;;
22094;SDS011;24083;55.670;37.568;2024-03-25T10:49:58;7.03;;;1.80;;
22094;SDS011;24083;55.670;37.568;2024-03-25T10:52:26;6.28;;;1.50;;
22094;SDS011;24083;55.670;37.568;2024-03-25T10:54:51;1.73;;;1.00;;
22094;SDS011;24083;55.670;37.568;2024-03-25T10:57:21;3.67;;;1.60;;
22094;SDS011;24083;55.670;37.568;2024-03-25T10:59:47;3.80;;;1.27;;
22094;SDS011;24083;55.670;37.568;2024-03-25T11:02:14;4.07;;;1.60;;
22094;SDS011;24083;55.670;37.568;2024-03-25T11:04:41;7.07;;;1.70;;
22094;SDS011;24083;55.670;37.568;2024-03-25T11:07:14;2.05;;;1.00;;
22094;SDS011;24083;55.670;37.568;2024-03-25T11:09:40;3.70;;;1.30;;
22094;SDS011;24083;55.670;37.568;2024-03-25T11:12:07;3.58;;;1.75;;
22094;SDS011;24083;55.670;37.568;2024-03-25T11:17:02;8.15;;;2.20;;
22094;SDS011;24083;55.670;37.568;2024-03-25T11:19:29;5.57;;;1.58;;
22094;SDS011;24083;55.670;37.568;2024-03-25T11:22:09;4.10;;;1.43;;
22094;SDS011;24083;55.670;37.568;2024-03-25T11:24:38;8.70;;;1.77;;
22094;SDS011;24083;55.670;37.568;2024-03-25T11:27:09;4.93;;;1.83;;
22094;SDS011;24083;55.670;37.568;2024-03-25T11:29:37;2.90;;;1.60;;
22094;SDS011;24083;55.670;37.568;2024-03-25T11:32:05;4.80;;;1.85;;
22094;SDS011;24083;55.670;37.568;2024-03-25T11:34:39;2.55;;;1.02;;
22094;SDS011;24083;55.670;37.568;2024-03-25T11:37:14;1.30;;;0.70;;
22094;SDS011;24083;55.670;37.568;2024-03-25T11:39:40;4.63;;;2.00;;
22094;SDS011;24083;55.670;37.568;2024-03-25T11:42:10;5.22;;;2.05;;
22094;SDS011;24083;55.670;37.568;2024-03-25T11:44:39;3.00;;;1.88;;
22094;SDS011;24083;55.670;37.568;2024-03-25T11:47:08;5.53;;;1.90;;
22094;SDS011;24083;55.670;37.568;2024-03-25T11:52:02;4.00;;;1.80;;
22094;SDS011;24083;55.670;37.568;2024-03-25T11:54:29;5.32;;;1.50;;
22094;SDS011;24083;55.670;37.568;2024-03-25T11:56:55;3.53;;;1.60;;
22094;SDS011;24083;55.670;37.568;2024-03-25T12:02:07;2.38;;;1.05;;
22094;SDS011;24083;55.670;37.568;2024-03-25T12:04:44;3.25;;;1.23;;
22094;SDS011;24083;55.670;37.568;2024-03-25T12:07:13;4.95;;;1.80;;
22094;SDS011;24083;55.670;37.568;2024-03-25T12:09:41;3.08;;;1.30;;
22094;SDS011;24083;55.670;37.568;2024-03-25T12:12:25;1.88;;;0.80;;
22094;SDS011;24083;55.670;37.568;2024-03-25T12:14:53;6.60;;;2.65;;
22094;SDS011;24083;55.670;37.568;2024-03-25T12:17:21;4.93;;;1.80;;
22094;SDS011;24083;55.670;37.568;2024-03-25T12:20:04;5.97;;;2.20;;
22094;SDS011;24083;55.670;37.568;2024-03-25T12:22:30;6.13;;;1.90;;
22094;SDS011;24083;55.670;37.568;2024-03-25T12:25:18;6.13;;;1.90;;
22094;SDS011;24083;55.670;37.568;2024-03-25T12:27:45;3.92;;;1.67;;
22094;SDS011;24083;55.670;37.568;2024-03-25T12:30:13;2.53;;;1.40;;
22094;SDS011;24083;55.670;37.568;2024-03-25T12:32:43;5.38;;;1.80;;
22094;SDS011;24083;55.670;37.568;2024-03-25T12:35:10;4.70;;;1.75;;
22094;SDS011;24083;55.670;37.568;2024-03-25T12:37:37;7.22;;;1.83;;
22094;SDS011;24083;55.670;37.568;2024-03-25T12:40:12;4.65;;;1.65;;
22094;SDS011;24083;55.670;37.568;2024-03-25T12:42:38;4.45;;;1.63;;
22094;SDS011;24083;55.670;37.568;2024-03-25T12:45:06;3.45;;;1.40;;
22094;SDS011;24083;55.670;37.568;2024-03-25T12:47:33;4.10;;;1.70;;
22094;SDS011;24083;55.670;37.568;2024-03-25T12:50:00;4.97;;;1.58;;
22094;SDS011;24083;55.670;37.568;2024-03-25T12:52:27;4.72;;;1.75;;
22094;SDS011;24083;55.670;37.568;2024-03-25T12:54:53;12.23;;;1.55;;
22094;SDS011;24083;55.670;37.568;2024-03-25T12:57:19;7.47;;;1.98;;
22094;SDS011;24083;55.670;37.568;2024-03-25T12:59:46;6.03;;;1.77;;
22094;SDS011;24083;55.670;37.568;2024-03-25T13:02:17;3.25;;;1.60;;
22094;SDS011;24083;55.670;37.568;2024-03-25T13:04:46;5.70;;;1.42;;
22094;SDS011;24083;55.670;37.568;2024-03-25T13:07:19;4.13;;;1.27;;
22094;SDS011;24083;55.670;37.568;2024-03-25T13:09:45;4.75;;;1.77;;
22094;SDS011;24083;55.670;37.568;2024-03-25T13:12:13;8.57;;;1.60;;
22094;SDS011;24083;55.670;37.568;2024-03-25T13:14:39;6.65;;;1.70;;
22094;SDS011;24083;55.670;37.568;2024-03-25T13:17:06;6.65;;;1.77;;
22094;SDS011;24083;55.670;37.568;2024-03-25T13:19:33;4.60;;;1.80;;
22094;SDS011;24083;55.670;37.568;2024-03-25T13:22:04;5.68;;;2.08;;
22094;SDS011;24083;55.670;37.568;2024-03-25T13:24:33;6.07;;;2.00;;
22094;SDS011;24083;55.670;37.568;2024-03-25T13:27:02;5.65;;;1.73;;
22094;SDS011;24083;55.670;37.568;2024-03-25T13:29:30;7.60;;;2.20;;
22094;SDS011;24083;55.670;37.568;2024-03-25T13:31:58;6.63;;;1.65;;
22094;SDS011;24083;55.670;37.568;2024-03-25T13:34:28;6.40;;;2.03;;
22094;SDS011;24083;55.670;37.568;2024-03-25T13:36:55;5.22;;;2.00;;
22094;SDS011;24083;55.670;37.568;2024-03-25T13:39:25;7.63;;;3.03;;
22094;SDS011;24083;55.670;37.568;2024-03-25T13:41:52;4.93;;;2.03;;
22094;SDS011;24083;55.670;37.568;2024-03-25T13:44:22;5.78;;;2.17;;
22094;SDS011;24083;55.670;37.568;2024-03-25T13:46:52;3.20;;;1.80;;
22094;SDS011;24083;55.670;37.568;2024-03-25T13:51:55;7.45;;;2.45;;
22094;SDS011;24083;55.670;37.568;2024-03-25T13:54:22;4.50;;;1.85;;
22094;SDS011;24083;55.670;37.568;2024-03-25T13:56:49;7.10;;;1.80;;
22094;SDS011;24083;55.670;37.568;2024-03-25T13:59:19;7.57;;;1.90;;
22094;SDS011;24083;55.670;37.568;2024-03-25T14:01:49;4.18;;;2.03;;
22094;SDS011;24083;55.670;37.568;2024-03-25T14:04:15;5.40;;;1.75;;
22094;SDS011;24083;55.670;37.568;2024-03-25T14:06:42;8.52;;;1.92;;
22094;SDS011;24083;55.670;37.568;2024-03-25T14:09:22;5.60;;;1.80;;
22094;SDS011;24083;55.670;37.568;2024-03-25T14:14:48;6.18;;;1.90;;
22094;SDS011;24083;55.670;37.568;2024-03-25T14:17:14;7.10;;;2.00;;
22094;SDS011;24083;55.670;37.568;2024-03-25T14:19:42;5.57;;;2.10;;
22094;SDS011;24083;55.670;37.568;2024-03-25T14:22:08;5.95;;;2.10;;
22094;SDS011;24083;55.670;37.568;2024-03-25T14:24:35;4.93;;;2.10;;
22094;SDS011;24083;55.670;37.568;2024-03-25T14:27:02;6.05;;;1.85;;
22094;SDS011;24083;55.670;37.568;2024-03-25T14:29:28;4.85;;;1.95;;
22094;SDS011;24083;55.670;37.568;2024-03-25T14:32:02;7.05;;;2.30;;
22094;SDS011;24083;55.670;37.568;2024-03-25T14:34:28;9.20;;;1.90;;
22094;SDS011;24083;55.670;37.568;2024-03-25T14:36:57;11.93;;;1.70;;
22094;SDS011;24083;55.670;37.568;2024-03-25T14:39:23;10.18;;;2.10;;
22094;SDS011;24083;55.670;37.568;2024-03-25T14:41:50;7.85;;;2.00;;
22094;SDS011;24083;55.670;37.568;2024-03-25T14:44:16;7.68;;;2.03;;
22094;SDS011;24083;55.670;37.568;2024-03-25T14:46:42;9.10;;;2.15;;
22094;SDS011;24083;55.670;37.568;2024-03-25T14:49:28;8.68;;;2.10;;
22094;SDS011;24083;55.670;37.568;2024-03-25T14:51:53;6.30;;;1.92;;
22094;SDS011;24083;55.670;37.568;2024-03-25T14:54:20;6.70;;;1.95;;
22094;SDS011;24083;55.670;37.568;2024-03-25T14:56:47;8.77;;;2.20;;
22094;SDS011;24083;55.670;37.568;2024-03-25T14:59:14;11.88;;;2.25;;
22094;SDS011;24083;55.670;37.568;2024-03-25T15:01:41;5.80;;;2.10;;
22094;SDS011;24083;55.670;37.568;2024-03-25T15:04:07;8.32;;;2.50;;
22094;SDS011;24083;55.670;37.568;2024-03-25T15:06:35;8.07;;;2.30;;
22094;SDS011;24083;55.670;37.568;2024-03-25T15:09:01;7.95;;;2.50;;
22094;SDS011;24083;55.670;37.568;2024-03-25T15:11:30;5.90;;;2.10;;
22094;SDS011;24083;55.670;37.568;2024-03-25T15:13:56;7.85;;;2.40;;
22094;SDS011;24083;55.670;37.568;2024-03-25T15:18:51;10.35;;;2.30;;
22094;SDS011;24083;55.670;37.568;2024-03-25T15:21:17;9.32;;;2.25;;
22094;SDS011;24083;55.670;37.568;2024-03-25T15:23:42;8.35;;;2.33;;
22094;SDS011;24083;55.670;37.568;2024-03-25T15:26:08;6.00;;;2.40;;
22094;SDS011;24083;55.670;37.568;2024-03-25T15:28:35;7.60;;;2.20;;
22094;SDS011;24083;55.670;37.568;2024-03-25T15:31:01;10.00;;;2.40;;
22094;SDS011;24083;55.670;37.568;2024-03-25T15:33:28;9.93;;;2.50;;
22094;SDS011;24083;55.670;37.568;2024-03-25T15:36:10;8.45;;;2.55;;
22094;SDS011;24083;55.670;37.568;2024-03-25T15:38:40;11.57;;;2.30;;
22094;SDS011;24083;55.670;37.568;2024-03-25T15:41:06;7.57;;;2.50;;
22094;SDS011;24083;55.670;37.568;2024-03-25T15:43:32;6.55;;;2.53;;
22094;SDS011;24083;55.670;37.568;2024-03-25T15:45:59;10.50;;;2.38;;
22094;SDS011;24083;55.670;37.568;2024-03-25T15:48:26;8.45;;;2.28;;
22094;SDS011;24083;55.670;37.568;2024-03-25T15:56:50;8.27;;;2.53;;